createdAt,value
2017-11-03T00:00:39.869Z,5.00
2017-11-03T00:03:07.322Z,5.77
2017-11-03T00:05:35.516Z,5.20
2017-11-03T00:08:02.993Z,8.77
2017-11-03T00:10:30.431Z,4.37
2017-11-03T00:12:58.644Z,5.20
2017-11-03T00:15:26.079Z,5.03
2017-11-03T00:17:54.303Z,4.87
2017-11-03T00:20:21.745Z,4.20
2017-11-03T00:22:49.195Z,4.93
2017-11-03T00:25:16.669Z,3.47
2017-11-03T00:27:44.112Z,4.30
2017-11-03T00:30:11.556Z,3.43
2017-11-03T00:32:39.772Z,4.53
2017-11-03T00:35:07.202Z,4.87
2017-11-03T00:37:35.425Z,4.07
2017-11-03T00:40:02.866Z,4.73
2017-11-03T00:42:30.304Z,5.43
2017-11-03T00:44:58.543Z,4.93
2017-11-03T00:47:26.005Z,5.07
2017-11-03T00:49:53.455Z,5.80
2017-11-03T00:52:20.917Z,5.83
2017-11-03T00:54:48.366Z,7.33
2017-11-03T00:57:15.830Z,6.70
2017-11-03T00:59:43.269Z,5.17
2017-11-03T01:02:11.483Z,4.30
2017-11-03T01:04:38.926Z,5.63
2017-11-03T01:07:06.376Z,5.83
2017-11-03T01:09:34.613Z,4.60
2017-11-03T01:12:02.066Z,4.47
2017-11-03T01:14:29.502Z,3.60
2017-11-03T01:16:56.946Z,6.20
2017-11-03T01:19:25.148Z,5.13
2017-11-03T01:21:52.592Z,5.50
2017-11-03T01:24:20.036Z,5.53
2017-11-03T01:26:48.269Z,4.20
2017-11-03T01:29:15.715Z,6.00
2017-11-03T01:31:43.945Z,4.63
2017-11-03T01:34:11.392Z,6.57
2017-11-03T01:36:38.841Z,5.07
2017-11-03T01:39:06.315Z,5.23
2017-11-03T01:41:33.757Z,4.53
2017-11-03T01:44:01.193Z,5.37
2017-11-03T01:46:28.645Z,4.00
2017-11-03T01:48:56.846Z,4.30
2017-11-03T01:51:24.307Z,5.13
2017-11-03T01:53:51.772Z,5.70
2017-11-03T01:56:19.211Z,5.30
2017-11-03T01:58:47.431Z,3.97
2017-11-03T02:01:14.863Z,4.07
2017-11-03T02:03:42.344Z,5.50
2017-11-03T02:06:09.795Z,4.27
2017-11-03T02:08:37.233Z,5.37
2017-11-03T02:11:05.461Z,5.30
2017-11-03T02:13:32.911Z,5.20
2017-11-03T02:16:00.359Z,5.73
2017-11-03T02:18:27.800Z,4.47
2017-11-03T02:20:56.017Z,5.83
2017-11-03T02:23:23.472Z,4.77
2017-11-03T02:25:50.924Z,4.00
2017-11-03T02:28:18.386Z,5.30
2017-11-03T02:30:46.580Z,3.80
2017-11-03T02:33:14.033Z,3.80
2017-11-03T02:35:41.472Z,4.07
2017-11-03T02:38:09.683Z,4.17
2017-11-03T02:40:37.133Z,6.87
2017-11-03T02:43:04.571Z,4.50
2017-11-03T02:45:32.790Z,7.10
2017-11-03T02:48:00.269Z,5.67
2017-11-03T02:50:27.730Z,5.00
2017-11-03T02:52:55.182Z,4.00
2017-11-03T02:55:22.627Z,4.90
2017-11-03T02:57:50.071Z,6.03
2017-11-03T03:00:18.298Z,4.20
2017-11-03T03:02:45.727Z,4.60
2017-11-03T03:05:13.179Z,5.30
2017-11-03T03:07:41.406Z,4.03
2017-11-03T03:10:08.852Z,5.60
2017-11-03T03:12:36.288Z,5.57
2017-11-03T03:15:04.503Z,5.20
2017-11-03T03:17:31.950Z,5.80
2017-11-03T03:19:59.409Z,5.07
2017-11-03T03:22:27.618Z,4.97
2017-11-03T03:24:55.049Z,4.40
2017-11-03T03:27:22.519Z,3.70
2017-11-03T03:29:49.956Z,3.50
2017-11-03T03:32:18.172Z,5.93
2017-11-03T03:34:46.390Z,4.67
2017-11-03T03:37:13.829Z,5.13
2017-11-03T03:39:41.287Z,4.80
2017-11-03T03:42:08.741Z,6.60
2017-11-03T03:44:36.200Z,4.30
2017-11-03T03:47:03.652Z,5.63
2017-11-03T03:49:31.083Z,4.77
2017-11-03T03:51:59.320Z,5.00
2017-11-03T03:54:26.771Z,3.40
2017-11-03T03:56:54.221Z,3.83
2017-11-03T03:59:21.667Z,4.63
2017-11-03T04:01:49.117Z,4.37
2017-11-03T04:04:17.328Z,4.93
2017-11-03T04:06:44.772Z,5.00
2017-11-03T04:09:12.232Z,3.80
2017-11-03T04:11:40.427Z,4.40
2017-11-03T04:14:07.893Z,4.90
2017-11-03T04:16:35.344Z,5.00
2017-11-03T04:19:02.785Z,4.47
2017-11-03T04:21:30.992Z,5.17
2017-11-03T04:23:58.434Z,4.20
2017-11-03T04:26:26.668Z,4.83
2017-11-03T04:28:54.133Z,5.67
2017-11-03T04:31:21.583Z,6.77
2017-11-03T04:33:49.030Z,4.10
2017-11-03T04:36:16.461Z,3.30
2017-11-03T04:38:44.685Z,3.93
2017-11-03T04:41:12.882Z,5.07
2017-11-03T04:43:40.337Z,5.80
2017-11-03T04:46:07.777Z,4.20
2017-11-03T04:48:35.230Z,5.43
2017-11-03T04:51:02.680Z,4.33
2017-11-03T04:53:30.893Z,3.50
2017-11-03T04:55:58.346Z,4.20
2017-11-03T04:58:25.812Z,3.50
2017-11-03T05:00:53.285Z,4.37
2017-11-03T05:03:20.728Z,4.93
2017-11-03T05:05:48.174Z,3.07
2017-11-03T05:08:15.628Z,4.50
2017-11-03T05:10:43.861Z,3.37
2017-11-03T05:13:11.325Z,4.40
2017-11-03T05:15:38.775Z,4.47
2017-11-03T05:18:06.227Z,4.90
2017-11-03T05:20:33.690Z,3.93
2017-11-03T05:23:01.114Z,4.53
2017-11-03T05:25:29.345Z,3.63
2017-11-03T05:27:56.788Z,4.37
2017-11-03T05:30:24.252Z,5.67
2017-11-03T05:32:51.729Z,4.77
2017-11-03T05:35:19.160Z,5.20
2017-11-03T05:37:46.617Z,3.63
2017-11-03T05:40:14.826Z,3.83
2017-11-03T05:42:42.283Z,4.70
2017-11-03T05:45:09.745Z,4.03
2017-11-03T05:47:37.182Z,3.90
2017-11-03T05:50:05.421Z,3.10
2017-11-03T05:52:32.873Z,5.40
2017-11-03T05:55:00.331Z,5.67
2017-11-03T05:57:27.812Z,3.93
2017-11-03T05:59:55.250Z,4.37
2017-11-03T06:02:22.706Z,4.83
2017-11-03T06:04:50.162Z,4.33
2017-11-03T06:07:17.625Z,4.03
2017-11-03T06:09:45.088Z,3.23
2017-11-03T06:12:12.538Z,4.80
2017-11-03T06:14:39.983Z,3.80
2017-11-03T06:17:08.203Z,4.83
2017-11-03T06:19:36.441Z,5.13
2017-11-03T06:22:04.653Z,4.60
2017-11-03T06:24:32.097Z,3.70
2017-11-03T06:27:00.329Z,4.03
2017-11-03T06:29:27.794Z,5.20
2017-11-03T06:31:55.232Z,3.60
2017-11-03T06:34:22.696Z,3.20
2017-11-03T06:36:50.151Z,3.77
2017-11-03T06:39:17.624Z,4.93
2017-11-03T06:41:45.087Z,3.93
2017-11-03T06:44:12.561Z,5.23
2017-11-03T06:46:40.018Z,4.50
2017-11-03T06:49:07.479Z,3.57
2017-11-03T06:51:34.932Z,4.90
2017-11-03T06:54:02.385Z,5.23
2017-11-03T06:56:29.853Z,6.83
2017-11-03T06:58:57.307Z,6.03
2017-11-03T07:01:24.773Z,5.87
2017-11-03T07:03:52.215Z,5.57
2017-11-03T07:06:20.440Z,6.67
2017-11-03T07:08:47.917Z,5.33
2017-11-03T07:11:15.368Z,5.10
2017-11-03T07:13:42.849Z,5.13
2017-11-03T07:16:10.294Z,6.30
2017-11-03T07:18:37.749Z,5.17
2017-11-03T07:21:05.229Z,4.30
2017-11-03T07:23:32.699Z,3.97
2017-11-03T07:26:00.168Z,5.63
2017-11-03T07:28:27.660Z,4.07
2017-11-03T07:30:55.902Z,3.97
2017-11-03T07:33:23.382Z,4.40
2017-11-03T07:35:50.826Z,5.57
2017-11-03T07:38:18.322Z,3.80
2017-11-03T07:40:46.533Z,4.87
2017-11-03T07:43:13.991Z,5.07
2017-11-03T07:45:41.435Z,5.13
2017-11-03T07:48:09.670Z,4.93
2017-11-03T07:50:37.127Z,4.13
2017-11-03T07:53:04.582Z,4.20
2017-11-03T07:55:32.056Z,4.40
2017-11-03T07:57:59.499Z,4.83
2017-11-03T08:00:26.943Z,3.80
2017-11-03T08:02:54.386Z,6.40
2017-11-03T08:05:22.625Z,4.10
2017-11-03T08:07:50.089Z,6.13
2017-11-03T08:10:17.548Z,4.62
2017-11-03T08:12:45.060Z,4.03
2017-11-03T08:15:13.281Z,5.57
2017-11-03T08:17:40.711Z,4.30
2017-11-03T08:20:08.217Z,8.87
2017-11-03T08:22:35.668Z,6.33
2017-11-03T08:25:03.707Z,8.20
2017-11-03T08:27:31.906Z,7.07
2017-11-03T08:29:59.362Z,6.07
2017-11-03T08:32:26.831Z,6.87
2017-11-03T08:34:54.296Z,4.70
2017-11-03T08:37:21.761Z,5.90
2017-11-03T08:39:49.241Z,6.80
2017-11-03T08:42:16.721Z,6.53
2017-11-03T08:44:44.167Z,6.87
2017-11-03T08:47:11.621Z,6.83
2017-11-03T08:49:39.093Z,6.00
2017-11-03T08:52:06.560Z,6.60
2017-11-03T08:54:33.996Z,6.30
2017-11-03T08:57:01.468Z,6.57
2017-11-03T08:59:29.862Z,5.93
2017-11-03T09:01:57.331Z,5.37
2017-11-03T09:04:24.785Z,4.30
2017-11-03T09:06:52.227Z,8.90
2017-11-03T09:09:19.690Z,6.77
2017-11-03T09:11:47.168Z,5.53
2017-11-03T09:14:14.632Z,7.63
2017-11-03T09:16:42.101Z,9.63
2017-11-03T09:19:09.556Z,7.37
2017-11-03T09:21:37.007Z,5.30
2017-11-03T09:24:04.470Z,5.70
2017-11-03T09:26:31.933Z,5.83
2017-11-03T09:28:59.395Z,8.60
2017-11-03T09:31:26.842Z,9.07
2017-11-03T09:33:54.309Z,9.40
2017-11-03T09:36:21.785Z,8.90
2017-11-03T09:38:49.248Z,7.47
2017-11-03T09:41:16.705Z,7.47
2017-11-03T09:43:44.158Z,8.20
2017-11-03T09:46:11.641Z,7.63
2017-11-03T09:48:39.076Z,7.07
2017-11-03T09:51:07.301Z,9.97
2017-11-03T09:53:34.755Z,7.97
2017-11-03T09:56:02.224Z,7.13
2017-11-03T09:58:29.674Z,7.30
2017-11-03T10:00:57.128Z,6.70
2017-11-03T10:03:24.596Z,7.83
2017-11-03T10:05:52.048Z,9.70
2017-11-03T10:08:19.513Z,7.03
2017-11-03T10:10:46.977Z,7.77
2017-11-03T10:13:14.443Z,10.23
2017-11-03T10:15:41.905Z,8.07
2017-11-03T10:18:09.375Z,7.97
2017-11-03T10:20:36.827Z,8.07
2017-11-03T10:23:04.279Z,7.93
2017-11-03T10:25:31.765Z,8.27
2017-11-03T10:27:59.227Z,9.70
2017-11-03T10:30:26.681Z,9.17
2017-11-03T10:32:54.120Z,9.50
2017-11-03T10:35:22.325Z,10.83
2017-11-03T10:37:49.777Z,8.60
2017-11-03T10:40:17.230Z,8.53
2017-11-03T10:42:44.675Z,8.90
2017-11-03T10:45:12.907Z,7.50
2017-11-03T10:47:40.376Z,8.90
2017-11-03T10:50:07.821Z,9.63
2017-11-03T10:52:35.282Z,9.10
2017-11-03T10:55:02.727Z,9.53
2017-11-03T10:57:30.510Z,10.23
2017-11-03T10:59:57.973Z,9.07
2017-11-03T11:02:25.436Z,11.07
2017-11-03T11:04:52.880Z,9.00
2017-11-03T11:07:20.352Z,8.33
2017-11-03T11:09:47.787Z,8.23
2017-11-03T11:12:16.001Z,9.13
2017-11-03T11:14:43.476Z,7.33
2017-11-03T11:17:10.945Z,10.77
2017-11-03T11:19:38.396Z,7.80
2017-11-03T11:22:05.883Z,8.47
2017-11-03T11:24:33.334Z,8.67
2017-11-03T11:27:00.807Z,7.80
2017-11-03T11:29:28.271Z,8.30
2017-11-03T11:31:55.729Z,7.77
2017-11-03T11:34:23.193Z,7.27
2017-11-03T11:36:50.637Z,7.90
2017-11-03T11:39:18.102Z,7.83
2017-11-03T11:41:45.569Z,6.63
2017-11-03T11:44:13.031Z,7.90
2017-11-03T11:46:40.485Z,7.43
2017-11-03T11:49:07.939Z,6.70
2017-11-03T11:51:35.431Z,6.77
2017-11-03T11:54:02.896Z,7.03
2017-11-03T11:56:30.338Z,6.50
2017-11-03T11:58:57.784Z,6.53
2017-11-03T12:01:25.267Z,6.10
2017-11-03T12:03:52.701Z,6.40
2017-11-03T12:06:20.154Z,6.33
2017-11-03T12:08:48.389Z,5.80
2017-11-03T12:11:15.823Z,7.73
2017-11-03T12:13:43.312Z,5.90
2017-11-03T12:16:10.767Z,6.37
2017-11-03T12:18:38.242Z,6.47
2017-11-03T12:21:05.690Z,6.73
2017-11-03T12:23:33.136Z,6.00
2017-11-03T12:26:00.603Z,5.10
2017-11-03T12:28:28.050Z,5.53
2017-11-03T12:30:55.513Z,6.23
2017-11-03T12:33:22.978Z,6.20
2017-11-03T12:35:50.447Z,5.93
2017-11-03T12:38:17.915Z,5.60
2017-11-03T12:40:45.384Z,5.50
2017-11-03T12:43:12.861Z,5.47
2017-11-03T12:45:40.300Z,5.20
2017-11-03T12:48:07.805Z,5.30
2017-11-03T12:50:35.288Z,5.83
2017-11-03T12:53:02.731Z,5.53
2017-11-03T12:55:30.200Z,5.90
2017-11-03T12:57:57.659Z,4.80
2017-11-03T13:00:25.108Z,5.13
2017-11-03T13:02:52.580Z,5.17
2017-11-03T13:05:20.050Z,5.40
2017-11-03T13:07:47.530Z,4.83
2017-11-03T13:10:14.984Z,7.03
2017-11-03T13:12:42.433Z,4.67
2017-11-03T13:15:09.913Z,5.60
2017-11-03T13:17:37.360Z,6.47
2017-11-03T13:20:05.604Z,5.37
2017-11-03T13:22:33.079Z,5.03
2017-11-03T13:25:00.530Z,6.23
2017-11-03T13:27:27.986Z,4.90
2017-11-03T13:29:55.448Z,5.40
2017-11-03T13:32:22.915Z,5.00
2017-11-03T13:34:50.385Z,4.77
2017-11-03T13:37:17.853Z,5.27
2017-11-03T13:39:47.190Z,4.47
2017-11-03T13:42:15.455Z,4.80
2017-11-03T13:44:42.929Z,4.53
2017-11-03T13:47:10.414Z,4.60
2017-11-03T13:49:37.861Z,6.07
2017-11-03T13:52:05.305Z,5.03
2017-11-03T13:54:32.773Z,6.33
2017-11-03T13:57:00.229Z,5.03
2017-11-03T13:59:27.697Z,4.97
2017-11-03T14:01:55.137Z,5.70
2017-11-03T14:04:22.596Z,4.97
2017-11-03T14:06:50.023Z,5.10
2017-11-03T14:09:18.259Z,4.83
2017-11-03T14:11:45.709Z,4.17
2017-11-03T14:14:13.155Z,5.03
2017-11-03T14:16:40.622Z,5.13
2017-11-03T14:19:08.094Z,4.37
2017-11-03T14:21:35.543Z,4.40
2017-11-03T14:24:03.012Z,3.97
2017-11-03T14:26:30.466Z,4.30
2017-11-03T14:28:57.934Z,3.90
2017-11-03T14:31:25.418Z,3.83
2017-11-03T14:33:52.870Z,4.10
2017-11-03T14:36:20.349Z,3.90
2017-11-03T14:38:47.790Z,3.93
2017-11-03T14:41:15.268Z,4.20
2017-11-03T14:43:42.759Z,4.20
2017-11-03T14:46:10.239Z,4.00
2017-11-03T14:48:38.470Z,4.17
2017-11-03T14:51:05.919Z,4.30
2017-11-03T14:56:08.418Z,4.13
2017-11-03T14:58:36.285Z,3.97
2017-11-03T15:01:03.731Z,3.70
2017-11-03T15:03:31.209Z,3.77
2017-11-03T15:05:58.661Z,3.97
2017-11-03T15:08:26.133Z,4.30
2017-11-03T15:10:53.597Z,3.80
2017-11-03T15:13:21.060Z,4.13
2017-11-03T15:15:48.521Z,3.87
2017-11-03T15:18:15.974Z,3.93
2017-11-03T15:20:43.424Z,3.90
2017-11-03T15:23:11.643Z,4.27
2017-11-03T15:25:39.105Z,3.83
2017-11-03T15:28:06.563Z,3.83
2017-11-03T15:30:34.022Z,4.00
2017-11-03T15:33:01.479Z,4.03
2017-11-03T15:35:28.944Z,4.20
2017-11-03T15:37:56.448Z,3.93
2017-11-03T15:40:23.933Z,3.77
2017-11-03T15:42:52.158Z,4.90
2017-11-03T15:45:19.624Z,4.70
2017-11-03T15:47:47.836Z,4.70
2017-11-03T15:50:15.290Z,4.50
2017-11-03T15:52:42.727Z,4.97
2017-11-03T15:55:10.203Z,4.83
2017-11-03T15:57:37.667Z,5.20
2017-11-03T16:00:05.127Z,5.07
2017-11-03T16:02:32.592Z,6.67
2017-11-03T16:05:00.035Z,6.53
2017-11-03T16:07:27.470Z,5.60
2017-11-03T16:09:54.957Z,6.80
2017-11-03T16:12:22.521Z,5.70
2017-11-03T16:14:49.987Z,5.47
2017-11-03T16:17:17.428Z,5.70
2017-11-03T16:19:44.881Z,5.90
2017-11-03T16:22:13.107Z,6.67
2017-11-03T16:24:40.567Z,7.03
2017-11-03T16:27:08.033Z,6.93
2017-11-03T16:29:35.498Z,6.40
2017-11-03T16:32:02.957Z,8.17
2017-11-03T16:34:30.429Z,8.63
2017-11-03T16:36:58.654Z,10.03
2017-11-03T16:39:26.885Z,7.93
2017-11-03T16:41:54.341Z,7.50
2017-11-03T16:44:21.788Z,8.80
2017-11-03T16:46:49.226Z,8.43
2017-11-03T16:49:17.427Z,8.33
2017-11-03T16:51:44.890Z,9.10
2017-11-03T16:54:12.358Z,9.30
2017-11-03T16:56:39.826Z,8.50
2017-11-03T16:59:07.286Z,10.43
2017-11-03T17:01:34.736Z,10.20
2017-11-03T17:04:02.196Z,10.73
2017-11-03T17:06:29.670Z,11.87
2017-11-03T17:08:57.130Z,19.57
2017-11-03T17:11:24.607Z,20.53
2017-11-03T17:13:52.058Z,18.30
2017-11-03T17:16:19.530Z,16.87
2017-11-03T17:18:46.985Z,18.13
2017-11-03T17:21:14.456Z,18.67
2017-11-03T17:23:41.924Z,18.00
2017-11-03T17:26:09.360Z,17.23
2017-11-03T17:28:36.812Z,18.83
2017-11-03T17:31:05.037Z,17.93
2017-11-03T17:33:32.482Z,19.03
2017-11-03T17:35:59.942Z,17.60
2017-11-03T17:38:27.398Z,19.37
2017-11-03T17:40:54.846Z,18.17
2017-11-03T17:43:22.316Z,19.57
2017-11-03T17:45:49.778Z,29.07
2017-11-03T17:48:17.599Z,24.00
2017-11-03T17:50:45.084Z,28.23
2017-11-03T17:53:13.313Z,26.30
2017-11-03T17:55:41.537Z,29.37
2017-11-03T17:58:08.991Z,28.40
2017-11-03T18:00:36.443Z,24.00
2017-11-03T18:03:03.921Z,27.77
2017-11-03T18:05:31.385Z,28.47
2017-11-03T18:07:58.844Z,27.10
2017-11-03T18:10:26.301Z,29.30
2017-11-03T18:12:53.743Z,30.07
2017-11-03T18:15:21.194Z,25.10
2017-11-03T18:17:48.749Z,28.00
2017-11-03T18:20:16.204Z,26.93
2017-11-03T18:22:43.657Z,26.77
2017-11-03T18:25:11.869Z,29.23
2017-11-03T18:27:39.323Z,33.73
2017-11-03T18:30:06.767Z,28.63
2017-11-03T18:32:34.209Z,26.73
2017-11-03T18:35:02.427Z,28.97
2017-11-03T18:37:29.888Z,30.63
2017-11-03T18:39:57.341Z,29.23
2017-11-03T18:42:24.795Z,28.80
2017-11-03T18:44:52.265Z,30.40
2017-11-03T18:47:19.707Z,30.77
2017-11-03T18:49:47.945Z,30.50
2017-11-03T18:52:15.397Z,33.00
2017-11-03T18:54:42.869Z,30.80
2017-11-03T18:57:10.319Z,30.60
2017-11-03T18:59:38.551Z,32.07
2017-11-03T19:02:17.715Z,32.13
2017-11-03T19:04:45.177Z,34.93
2017-11-03T19:07:12.669Z,31.17
2017-11-03T19:09:40.127Z,31.87
2017-11-03T19:12:07.588Z,33.30
2017-11-03T19:14:35.026Z,36.83
2017-11-03T19:17:02.490Z,36.27
2017-11-03T19:19:29.927Z,36.13
2017-11-03T19:21:58.145Z,38.63
2017-11-03T19:24:25.590Z,35.40
2017-11-03T19:26:53.055Z,33.77
2017-11-03T19:29:20.510Z,35.00
2017-11-03T19:31:47.966Z,37.33
2017-11-03T19:34:15.431Z,39.00
2017-11-03T19:36:42.894Z,36.77
2017-11-03T19:39:10.387Z,35.60
2017-11-03T19:41:37.861Z,37.73
2017-11-03T19:44:05.325Z,38.23
2017-11-03T19:46:32.822Z,36.87
2017-11-03T19:49:00.283Z,41.43
2017-11-03T19:51:28.499Z,42.23
2017-11-03T19:53:55.982Z,39.50
2017-11-03T19:56:23.467Z,39.67
2017-11-03T19:58:50.916Z,39.53
2017-11-03T20:01:18.901Z,41.60
2017-11-03T20:03:46.357Z,40.13
2017-11-03T20:06:13.833Z,44.63
2017-11-03T20:08:41.278Z,42.87
2017-11-03T20:11:08.776Z,40.33
2017-11-03T20:13:36.242Z,42.83
2017-11-03T20:16:04.519Z,40.23
2017-11-03T20:18:32.763Z,42.80
2017-11-03T20:21:00.220Z,45.80
2017-11-03T20:23:27.762Z,42.30
2017-11-03T20:25:55.235Z,45.37
2017-11-03T20:28:22.749Z,45.27
2017-11-03T20:30:50.234Z,47.80
2017-11-03T20:33:18.496Z,43.33
2017-11-03T20:35:46.738Z,47.60
2017-11-03T20:38:14.229Z,46.17
2017-11-03T20:40:41.703Z,45.60
2017-11-03T20:43:09.164Z,48.50
2017-11-03T20:45:36.612Z,49.53
2017-11-03T20:48:04.071Z,48.67
2017-11-03T20:50:31.539Z,50.23
2017-11-03T20:52:58.987Z,50.60
2017-11-03T20:55:26.462Z,48.73
2017-11-03T20:57:53.906Z,47.83
2017-11-03T21:00:22.120Z,52.67
2017-11-03T21:02:49.980Z,47.67
2017-11-03T21:05:17.419Z,49.23
2017-11-03T21:07:44.876Z,52.83
2017-11-03T21:10:12.348Z,51.33
2017-11-03T21:12:40.587Z,48.50
2017-11-03T21:15:08.040Z,47.77
2017-11-03T21:17:36.293Z,54.93
2017-11-03T21:20:03.763Z,50.30
2017-11-03T21:22:31.232Z,49.60
2017-11-03T21:24:58.674Z,52.30
2017-11-03T21:27:26.158Z,51.83
2017-11-03T21:29:53.624Z,47.53
2017-11-03T21:32:21.060Z,50.03
2017-11-03T21:34:48.521Z,52.53
2017-11-03T21:37:16.758Z,49.60
2017-11-03T21:39:44.209Z,49.37
2017-11-03T21:42:11.684Z,52.57
2017-11-03T21:44:39.126Z,50.17
2017-11-03T21:47:07.357Z,50.73
2017-11-03T21:49:35.581Z,47.77
2017-11-03T21:52:03.822Z,52.77
2017-11-03T21:54:32.596Z,50.83
2017-11-03T21:57:00.055Z,49.53
2017-11-03T21:59:27.535Z,51.13
2017-11-03T22:01:55.016Z,53.53
2017-11-03T22:04:22.489Z,51.33
2017-11-03T22:06:49.948Z,51.93
2017-11-03T22:09:17.425Z,49.23
2017-11-03T22:11:44.879Z,53.37
2017-11-03T22:14:12.337Z,48.53
2017-11-03T22:16:39.808Z,50.70
2017-11-03T22:19:07.270Z,49.53
2017-11-03T22:21:34.724Z,54.70
2017-11-03T22:24:02.584Z,46.77
2017-11-03T22:26:30.037Z,49.63
2017-11-03T22:28:57.503Z,51.77
2017-11-03T22:31:24.956Z,48.30
2017-11-03T22:33:52.403Z,50.90
2017-11-03T22:36:19.878Z,48.50
2017-11-03T22:38:47.328Z,50.77
2017-11-03T22:41:14.800Z,48.13
2017-11-03T22:43:42.264Z,47.80
2017-11-03T22:46:09.711Z,44.70
2017-11-03T22:48:37.163Z,46.83
2017-11-03T22:51:04.618Z,46.47
2017-11-03T22:53:32.112Z,49.73
2017-11-03T22:55:59.563Z,46.50
2017-11-03T22:58:27.029Z,48.70
2017-11-03T23:00:54.505Z,46.80
2017-11-03T23:03:21.971Z,49.53
2017-11-03T23:05:49.420Z,44.13
2017-11-03T23:08:16.881Z,44.17
2017-11-03T23:10:44.329Z,46.27
2017-11-03T23:13:11.786Z,46.00
2017-11-03T23:15:39.249Z,43.20
2017-11-03T23:18:06.740Z,48.50
2017-11-03T23:20:34.205Z,46.37
2017-11-03T23:23:01.660Z,47.50
2017-11-03T23:25:29.095Z,47.30
2017-11-03T23:27:56.567Z,45.57
2017-11-03T23:30:24.061Z,46.47
2017-11-03T23:32:51.499Z,47.80
2017-11-03T23:35:18.971Z,45.00
2017-11-03T23:37:46.531Z,44.07
2017-11-03T23:40:13.989Z,47.80
2017-11-03T23:42:41.461Z,43.93
2017-11-03T23:45:08.931Z,44.27
2017-11-03T23:47:36.383Z,44.97
2017-11-03T23:50:03.844Z,44.10
2017-11-03T23:52:31.333Z,44.07
2017-11-03T23:54:58.796Z,45.10
2017-11-03T23:57:26.232Z,40.73
2017-11-03T23:59:53.696Z,41.77
